Time;durP1;ratioP1;P1;durP2;ratioP2;P2;SDS_P1;SDS_P2;PMS_P1;PMS_P2;Temp;Humidity;BMP_temperature;BMP_pressure;BME280_temperature;BME280_humidity;BME280_pressure;Samples;Min_cycle;Max_cycle;Signal;HPM_P1;HPM_P2
2023/09/26 00:02:25;;;;;;;6.35;4.13;;;;;;;18.91;61.39;102134.56;5033928;28;20545;-55
2023/09/26 00:04:51;;;;;;;4.32;3.30;;;;;;;18.90;61.63;102140.91;5034980;28;20040;-55
2023/09/26 00:07:17;;;;;;;6.05;3.67;;;;;;;18.90;61.50;102135.53;5035061;28;20040;-56
2023/09/26 00:09:43;;;;;;;6.15;3.33;;;;;;;18.89;61.71;102131.13;5034459;28;20029;-56
2023/09/26 00:12:08;;;;;;;6.65;3.25;;;;;;;18.88;61.60;102127.53;5034984;28;20586;-55
2023/09/26 00:14:34;;;;;;;4.30;3.58;;;;;;;18.88;61.55;102132.94;5034336;28;20468;-55
2023/09/26 00:16:59;;;;;;;4.05;3.58;;;;;;;18.88;61.47;102124.84;5034327;28;20025;-55
2023/09/26 00:19:25;;;;;;;4.68;3.53;;;;;;;18.88;61.15;102132.09;5034433;28;20064;-55
2023/09/26 00:21:50;;;;;;;4.70;3.17;;;;;;;18.88;61.07;102129.38;5035481;28;20128;-55
2023/09/26 00:24:15;;;;;;;3.88;2.83;;;;;;;18.88;61.32;102130.25;5035172;28;20496;-55
2023/09/26 00:26:41;;;;;;;4.40;3.28;;;;;;;18.87;61.52;102131.22;5035635;28;20040;-55
2023/09/26 00:29:06;;;;;;;4.50;3.47;;;;;;;18.88;61.41;102129.38;5034991;28;20030;-55
2023/09/26 00:31:32;;;;;;;5.97;3.58;;;;;;;18.87;61.29;102136.63;5035022;28;20033;-55
2023/09/26 00:33:57;;;;;;;4.32;3.47;;;;;;;18.88;61.34;102129.38;5034853;28;20052;-56
2023/09/26 00:36:22;;;;;;;4.43;3.40;;;;;;;18.86;61.35;102132.19;5034665;28;20029;-56
2023/09/26 00:38:48;;;;;;;4.28;3.50;;;;;;;18.86;61.17;102129.50;5028335;28;20030;-56
2023/09/26 00:41:13;;;;;;;4.22;3.08;;;;;;;18.86;61.08;102131.34;5034973;28;20029;-55
2023/09/26 00:43:39;;;;;;;4.20;3.00;;;;;;;18.86;61.22;102137.59;5034861;28;20038;-56
2023/09/26 00:46:05;;;;;;;3.50;2.85;;;;;;;18.85;61.10;102130.50;5034246;28;20038;-55
2023/09/26 00:48:31;;;;;;;2.97;2.63;;;;;;;18.85;60.93;102125.09;5033973;28;20124;-55
2023/09/26 00:50:57;;;;;;;3.95;3.10;;;;;;;18.85;60.85;102135.00;5036469;28;20127;-55
2023/09/26 00:53:24;;;;;;;3.78;3.08;;;;;;;18.85;60.90;102132.31;5033478;28;20064;-55
2023/09/26 00:55:54;;;;;;;3.25;2.67;;;;;;;18.84;60.97;102139.56;5034753;28;20486;-55
2023/09/26 00:58:22;;;;;;;3.85;3.22;;;;;;;18.85;60.98;102127.81;5034569;28;20151;-56
2023/09/26 01:00:50;;;;;;;3.67;2.88;;;;;;;18.84;61.05;102122.53;5035222;28;20037;-56
2023/09/26 01:03:16;;;;;;;4.32;3.15;;;;;;;18.84;60.80;102117.97;5035063;28;20447;-56
2023/09/26 01:05:41;;;;;;;3.47;2.78;;;;;;;18.83;60.87;102116.28;5035449;28;20067;-55
2023/09/26 01:08:07;;;;;;;4.13;3.20;;;;;;;18.83;60.85;102115.38;5029552;28;20041;-55
2023/09/26 01:10:33;;;;;;;3.40;2.88;;;;;;;18.83;60.73;102116.28;5033447;28;20502;-55
2023/09/26 01:12:59;;;;;;;3.22;2.92;;;;;;;18.82;60.71;102114.53;5033860;28;20057;-56
2023/09/26 01:15:54;;;;;;;3.33;2.90;;;;;;;18.87;60.94;102116.88;5033768;28;20407;-56
2023/09/26 01:18:23;;;;;;;3.58;2.65;;;;;;;18.83;60.54;102105.47;5029744;28;20099;-56
2023/09/26 01:20:49;;;;;;;3.42;3.00;;;;;;;18.82;60.84;102103.75;5033798;28;20428;-55
2023/09/26 01:23:16;;;;;;;3.72;2.83;;;;;;;18.84;60.55;102111.72;5033695;28;20061;-55
2023/09/26 01:25:42;;;;;;;4.05;2.88;;;;;;;18.82;60.83;102119.09;5033823;28;20032;-55
2023/09/26 01:28:09;;;;;;;3.72;3.03;;;;;;;18.82;60.67;102119.09;5029743;28;20041;-56
2023/09/26 01:30:37;;;;;;;3.17;2.75;;;;;;;18.82;60.74;102128.03;5032945;28;20029;-55
2023/09/26 01:33:03;;;;;;;4.45;3.00;;;;;;;18.82;60.37;102121.78;5030710;28;20128;-55
2023/09/26 01:35:29;;;;;;;4.72;2.72;;;;;;;18.82;60.55;102127.19;5032669;28;20465;-55
2023/09/26 01:37:54;;;;;;;2.78;2.58;;;;;;;18.82;60.40;102124.47;5032935;28;20033;-55
2023/09/26 01:40:20;;;;;;;3.40;2.83;;;;;;;18.81;60.29;102120.94;5034403;28;20038;-56
2023/09/26 01:42:45;;;;;;;3.53;3.08;;;;;;;18.81;60.32;102117.34;5034946;28;20091;-55
2023/09/26 01:45:11;;;;;;;2.85;2.50;;;;;;;18.81;60.55;102120.94;5034571;28;20163;-56
2023/09/26 01:47:49;;;;;;;3.63;2.90;;;;;;;18.81;60.48;102114.66;5033744;28;20033;-56
2023/09/26 01:50:16;;;;;;;2.85;2.45;;;;;;;18.80;60.48;102115.63;5032569;28;20128;-55
2023/09/26 01:52:42;;;;;;;3.42;2.90;;;;;;;18.79;60.55;102114.75;5034059;28;20075;-59
2023/09/26 01:55:11;;;;;;;3.67;2.70;;;;;;;18.79;60.26;102113.88;5032886;28;20072;-55
2023/09/26 01:57:36;;;;;;;4.03;2.63;;;;;;;18.79;60.54;102113.88;5033170;28;20033;-55
2023/09/26 02:00:10;;;;;;;3.17;2.70;;;;;;;18.80;60.31;102112.91;5032992;28;20364;-55
2023/09/26 02:02:37;;;;;;;3.28;2.97;;;;;;;18.80;60.51;102110.22;5027093;28;20629;-55
2023/09/26 02:05:02;;;;;;;3.72;2.83;;;;;;;18.80;60.68;102110.22;5032068;28;20482;-56
2023/09/26 02:07:28;;;;;;;5.20;2.65;;;;;;;18.79;60.67;102109.38;5032190;28;20040;-55
2023/09/26 02:09:53;;;;;;;3.97;2.60;;;;;;;18.78;60.42;102112.19;5032255;28;20068;-54
2023/09/26 02:12:18;;;;;;;4.25;3.20;;;;;;;18.78;60.30;102112.19;5032191;28;20463;-55
2023/09/26 02:14:44;;;;;;;2.85;2.50;;;;;;;18.78;60.34;102104.09;5033233;28;20095;-55
2023/09/26 02:17:10;;;;;;;2.72;2.42;;;;;;;18.78;60.33;102101.38;5032397;28;20037;-55
2023/09/26 02:19:36;;;;;;;2.78;2.53;;;;;;;18.76;60.45;102105.06;5033092;28;20029;-56
2023/09/26 02:22:02;;;;;;;6.15;2.40;;;;;;;18.78;60.50;102106.78;5033071;28;20069;-55
2023/09/26 02:24:27;;;;;;;2.85;2.50;;;;;;;18.76;60.27;102098.81;5033452;28;20038;-55
2023/09/26 02:26:55;;;;;;;4.20;2.63;;;;;;;18.76;60.21;102101.50;5033724;28;20021;-55
2023/09/26 02:29:21;;;;;;;3.28;2.70;;;;;;;18.75;60.37;102097.94;5033609;28;20024;-56
2023/09/26 02:31:46;;;;;;;2.95;2.65;;;;;;;18.75;60.07;102097.06;5033707;28;20048;-55
2023/09/26 02:34:12;;;;;;;3.28;2.80;;;;;;;18.76;60.35;102093.41;5032680;28;20382;-55
2023/09/26 02:36:37;;;;;;;4.05;2.70;;;;;;;18.74;60.40;102104.31;5032744;28;20439;-55
2023/09/26 02:39:03;;;;;;;3.45;2.88;;;;;;;18.74;60.17;102101.63;5032665;28;20034;-55
2023/09/26 02:41:28;;;;;;;3.03;2.53;;;;;;;18.74;60.20;102098.06;5032885;28;20040;-55
2023/09/26 02:43:55;;;;;;;2.85;2.42;;;;;;;18.75;60.08;102097.06;5032309;28;20025;-55
2023/09/26 02:46:21;;;;;;;3.83;2.50;;;;;;;18.73;60.18;102088.25;5032528;28;20045;-55
2023/09/26 02:48:46;;;;;;;3.25;2.72;;;;;;;18.73;60.53;102082.84;5032686;28;20097;-55
2023/09/26 02:51:12;;;;;;;4.10;2.45;;;;;;;18.72;60.37;102084.69;5032011;28;20049;-55
2023/09/26 02:53:38;;;;;;;3.55;2.28;;;;;;;18.72;60.08;102075.75;5031718;28;20034;-55
2023/09/26 02:56:03;;;;;;;3.05;2.40;;;;;;;18.72;60.15;102076.59;5031826;28;20546;-55
2023/09/26 02:58:28;;;;;;;3.17;2.60;;;;;;;18.72;60.14;102073.91;5031412;28;20029;-55
2023/09/26 03:00:54;;;;;;;3.20;2.50;;;;;;;18.71;60.16;102072.16;5032932;28;20095;-56
2023/09/26 03:03:19;;;;;;;2.88;2.25;;;;;;;18.71;59.98;102066.78;5032924;28;20025;-55
2023/09/26 03:05:49;;;;;;;4.00;2.80;;;;;;;18.71;60.11;102058.69;5033285;28;20029;-55
2023/09/26 03:08:15;;;;;;;2.88;2.55;;;;;;;18.70;60.00;102056.13;5032029;28;20036;-55
2023/09/26 03:10:40;;;;;;;3.45;2.33;;;;;;;18.70;60.21;102054.28;5032527;28;20487;-55
2023/09/26 03:13:06;;;;;;;3.67;2.67;;;;;;;18.70;59.99;102056.13;5032766;28;20030;-55
2023/09/26 03:15:32;;;;;;;3.22;2.88;;;;;;;18.70;60.07;102058.81;5032677;28;20510;-55
2023/09/26 03:17:57;;;;;;;3.05;2.42;;;;;;;18.69;60.21;102060.63;5032744;28;20029;-55
2023/09/26 03:20:22;;;;;;;3.20;2.53;;;;;;;18.70;59.89;102062.38;5032842;28;20094;-56
2023/09/26 03:22:49;;;;;;;2.83;2.53;;;;;;;18.70;59.97;102061.53;5033276;28;20033;-56
2023/09/26 03:25:14;;;;;;;3.80;2.20;;;;;;;18.69;60.06;102055.25;5032227;28;20037;-55
2023/09/26 03:27:41;;;;;;;2.35;2.10;;;;;;;18.69;59.97;102055.25;5031786;28;20048;-56
2023/09/26 03:30:08;;;;;;;3.97;2.55;;;;;;;18.67;59.98;102054.50;5031650;28;20447;-55
2023/09/26 03:32:33;;;;;;;3.67;2.50;;;;;;;18.68;60.06;102058.94;5033251;28;20116;-55
2023/09/26 03:34:59;;;;;;;3.22;2.38;;;;;;;18.67;59.80;102054.50;5035290;28;20240;-56
2023/09/26 03:37:24;;;;;;;3.05;2.20;;;;;;;18.67;60.34;102053.66;5034932;28;20057;-55
2023/09/26 03:39:49;;;;;;;3.20;2.70;;;;;;;18.67;59.89;102051.81;5035199;28;20475;-55
2023/09/26 03:42:15;;;;;;;3.75;2.40;;;;;;;18.67;59.77;102059.06;5036298;28;20037;-56
2023/09/26 03:44:43;;;;;;;2.63;2.42;;;;;;;18.66;59.81;102055.50;5035948;28;20037;-56
2023/09/26 03:47:09;;;;;;;2.83;2.30;;;;;;;18.65;59.89;102061.88;5035886;28;20100;-55
2023/09/26 03:49:34;;;;;;;4.28;2.90;;;;;;;18.66;59.88;102058.22;5035856;28;20117;-56
2023/09/26 03:52:00;;;;;;;2.95;2.25;;;;;;;18.66;59.92;102050.13;5034362;28;20087;-55
2023/09/26 03:54:25;;;;;;;3.20;2.55;;;;;;;18.67;59.83;102050.97;5035721;28;20033;-56
2023/09/26 03:56:50;;;;;;;2.38;2.17;;;;;;;18.66;60.09;102047.41;5035898;28;20618;-55
2023/09/26 03:59:16;;;;;;;2.50;2.30;;;;;;;18.67;59.93;102050.97;5035482;28;20388;-55
2023/09/26 04:01:42;;;;;;;4.95;2.45;;;;;;;18.65;59.87;102051.06;5029667;28;20197;-55
2023/09/26 04:04:08;;;;;;;2.92;2.63;;;;;;;18.66;59.54;102043.88;5035060;28;20472;-55
2023/09/26 04:06:34;;;;;;;3.10;2.50;;;;;;;18.65;59.80;102048.38;5034467;28;20095;-56
2023/09/26 04:09:00;;;;;;;2.75;2.40;;;;;;;18.64;59.68;102043.97;5034477;28;20033;-55
2023/09/26 04:11:25;;;;;;;3.67;2.78;;;;;;;18.65;59.64;102047.53;5033152;28;20045;-55
2023/09/26 04:13:51;;;;;;;2.67;2.30;;;;;;;18.64;59.82;102048.50;5035105;28;20033;-55
2023/09/26 04:16:16;;;;;;;3.15;2.47;;;;;;;18.63;59.79;102050.34;5035027;28;20060;-57
2023/09/26 04:18:45;;;;;;;2.72;2.45;;;;;;;18.63;59.70;102039.56;5035120;28;20040;-55
2023/09/26 04:21:11;;;;;;;2.50;2.28;;;;;;;18.63;59.73;102049.50;5035606;28;20144;-56
2023/09/26 04:23:36;;;;;;;3.90;2.70;;;;;;;18.62;59.92;102043.25;5035351;28;20083;-56
2023/09/26 04:26:14;;;;;;;4.15;2.78;;;;;;;18.61;59.99;102036.13;5035183;28;20518;-55
2023/09/26 04:28:40;;;;;;;3.25;2.30;;;;;;;18.60;59.90;102031.72;5031815;28;20061;-56
2023/09/26 04:31:13;;;;;;;2.50;2.30;;;;;;;18.60;59.54;102023.63;5034865;28;20440;-55
2023/09/26 04:33:39;;;;;;;3.92;2.40;;;;;;;18.61;59.90;102021.78;5038666;28;20033;-55
2023/09/26 04:36:05;;;;;;;2.72;2.10;;;;;;;18.61;59.95;102016.38;5035023;28;20042;-55
2023/09/26 04:38:30;;;;;;;2.70;2.30;;;;;;;18.60;59.78;102018.22;5036455;28;20352;-56
2023/09/26 04:40:55;;;;;;;3.00;2.58;;;;;;;18.60;59.73;102020.94;5034634;28;20025;-56
2023/09/26 04:43:21;;;;;;;3.22;2.30;;;;;;;18.60;59.53;102020.06;5033522;28;20442;-55
2023/09/26 04:45:47;;;;;;;2.80;2.50;;;;;;;18.59;59.68;102016.50;5034238;28;20376;-55
2023/09/26 04:48:13;;;;;;;2.90;2.53;;;;;;;18.59;59.89;102016.50;5033958;28;20082;-55
2023/09/26 04:50:38;;;;;;;3.22;2.08;;;;;;;18.59;59.82;102010.25;5033977;28;20041;-55
2023/09/26 04:53:03;;;;;;;7.72;2.58;;;;;;;18.59;59.60;102011.09;5033735;28;20068;-56
2023/09/26 04:55:29;;;;;;;2.58;2.38;;;;;;;18.58;59.55;102008.53;5033682;28;20040;-55
2023/09/26 04:57:54;;;;;;;3.30;2.55;;;;;;;18.58;59.46;102012.06;5033770;28;20037;-55
2023/09/26 05:00:20;;;;;;;4.47;2.25;;;;;;;18.58;59.53;102009.38;5034441;28;20088;-55
2023/09/26 05:02:49;;;;;;;2.90;2.40;;;;;;;18.58;59.46;102006.69;5035674;28;20037;-56
2023/09/26 05:05:14;;;;;;;3.10;2.40;;;;;;;18.58;59.48;101997.75;5034807;28;20131;-55
2023/09/26 05:07:44;;;;;;;2.92;2.65;;;;;;;18.58;59.49;102003.13;5034257;28;20498;-55
2023/09/26 05:10:11;;;;;;;2.60;2.17;;;;;;;18.57;59.48;102010.38;5033998;28;20051;-54
2023/09/26 05:12:40;;;;;;;3.53;2.40;;;;;;;18.57;59.74;102021.16;5034321;28;20495;-55
2023/09/26 05:15:12;;;;;;;4.40;2.58;;;;;;;18.58;59.41;102019.31;5030331;28;20041;-55
2023/09/26 05:17:57;;;;;;;2.85;2.33;;;;;;;18.59;59.46;102011.09;5033765;28;20099;-55
2023/09/26 05:20:24;;;;;;;3.20;2.60;;;;;;;18.57;59.44;102013.06;5032003;28;20033;-55
2023/09/26 05:22:49;;;;;;;2.70;2.45;;;;;;;18.57;59.61;102018.47;5033735;28;20034;-55
2023/09/26 05:25:15;;;;;;;3.00;2.38;;;;;;;18.56;59.59;102003.25;5033200;28;20045;-55
2023/09/26 05:27:41;;;;;;;2.60;2.40;;;;;;;18.56;60.10;102005.94;5033247;28;20041;-55
2023/09/26 05:30:09;;;;;;;2.42;2.17;;;;;;;18.56;59.53;102014.03;5033076;28;20361;-55
2023/09/26 05:32:34;;;;;;;4.30;2.03;;;;;;;18.55;59.42;102007.78;5033331;28;20048;-55
2023/09/26 05:35:00;;;;;;;3.72;2.50;;;;;;;18.56;59.53;102014.03;5032867;28;20116;-55
2023/09/26 05:37:25;;;;;;;2.95;2.30;;;;;;;18.56;59.52;102004.13;5033340;28;20446;-55
2023/09/26 05:39:50;;;;;;;3.80;2.50;;;;;;;18.56;59.33;102011.34;5032838;28;20041;-55
2023/09/26 05:42:16;;;;;;;2.50;2.00;;;;;;;18.56;59.59;102009.53;5032605;28;21101;-55
2023/09/26 05:44:41;;;;;;;2.53;2.28;;;;;;;18.56;59.35;102022.13;5033145;28;20379;-55
2023/09/26 05:47:06;;;;;;;3.13;2.15;;;;;;;18.56;59.59;102019.44;5034105;28;20033;-55
2023/09/26 05:49:32;;;;;;;3.72;2.25;;;;;;;18.56;59.33;102020.31;5033407;28;20044;-55
2023/09/26 05:51:58;;;;;;;3.58;2.22;;;;;;;18.55;59.64;102021.28;5033340;28;20508;-55
2023/09/26 05:54:23;;;;;;;4.00;2.70;;;;;;;18.57;59.75;102023.88;5033306;28;20037;-55
2023/09/26 05:56:48;;;;;;;3.33;2.40;;;;;;;18.56;59.35;102022.13;5033180;28;20065;-56
2023/09/26 05:59:14;;;;;;;2.83;2.30;;;;;;;18.55;59.37;102023.97;5033016;28;20029;-55
2023/09/26 06:01:39;;;;;;;2.28;2.08;;;;;;;18.56;59.48;102024.81;5032612;28;20037;-55
2023/09/26 06:04:05;;;;;;;2.90;2.60;;;;;;;18.57;59.48;102026.56;5032808;28;20045;-55
2023/09/26 06:06:33;;;;;;;2.33;2.00;;;;;;;18.55;59.49;102026.66;5032667;28;20104;-55
2023/09/26 06:08:59;;;;;;;3.78;2.65;;;;;;;18.56;59.67;102024.81;5032311;28;20033;-55
2023/09/26 06:11:24;;;;;;;3.30;2.50;;;;;;;18.55;59.75;102025.81;5032866;28;20060;-55
2023/09/26 06:13:52;;;;;;;2.67;2.25;;;;;;;18.55;59.97;102020.44;5032769;28;20022;-55
2023/09/26 06:16:18;;;;;;;3.80;2.47;;;;;;;18.56;59.52;102024.81;5032535;28;20033;-55
2023/09/26 06:18:44;;;;;;;2.30;2.00;;;;;;;18.55;59.40;102020.44;5032149;28;20035;-55
2023/09/26 06:21:09;;;;;;;2.47;2.28;;;;;;;18.56;59.48;102019.44;5032189;28;20195;-56
2023/09/26 06:23:35;;;;;;;2.78;2.35;;;;;;;18.55;59.49;102015.03;5033278;28;20037;-55
2023/09/26 06:26:01;;;;;;;4.20;2.03;;;;;;;18.54;60.11;102014.19;5033521;28;20091;-55
2023/09/26 06:28:27;;;;;;;2.97;2.47;;;;;;;18.55;60.02;102009.63;5033630;28;20033;-55
2023/09/26 06:30:53;;;;;;;3.17;2.10;;;;;;;18.54;59.82;102003.41;5033476;28;20044;-55
2023/09/26 06:33:18;;;;;;;2.70;2.50;;;;;;;18.55;59.62;102006.94;5033857;28;20045;-55
2023/09/26 06:35:44;;;;;;;3.35;2.33;;;;;;;18.55;60.03;101996.16;5033531;28;20112;-55
2023/09/26 06:38:09;;;;;;;2.33;2.08;;;;;;;18.56;59.95;101995.16;5033352;28;20376;-55
2023/09/26 06:40:34;;;;;;;5.50;3.47;;;;;;;18.55;60.50;102005.09;5032767;28;20459;-56
2023/09/26 06:43:02;;;;;;;2.72;2.50;;;;;;;18.56;60.72;102005.94;5032452;28;20465;-55
2023/09/26 06:45:29;;;;;;;4.63;2.80;;;;;;;18.55;60.42;102005.09;5032617;28;20029;-55
2023/09/26 06:47:54;;;;;;;5.28;2.83;;;;;;;18.57;61.29;102013.06;5031623;28;20049;-55
2023/09/26 06:50:19;;;;;;;4.68;2.90;;;;;;;18.57;61.72;102010.38;5032923;28;20033;-56
2023/09/26 06:52:45;;;;;;;5.20;2.40;;;;;;;18.57;60.78;102013.06;5031743;28;20068;-55
2023/09/26 06:55:10;;;;;;;4.60;3.00;;;;;;;18.56;61.18;102022.13;5030114;28;20055;-55
2023/09/26 06:57:37;;;;;;;3.25;2.22;;;;;;;18.55;61.31;102021.28;5030381;28;20029;-56
2023/09/26 07:00:13;;;;;;;4.40;2.55;;;;;;;18.55;61.24;102021.28;5029516;28;20029;-55
2023/09/26 07:02:42;;;;;;;5.35;2.92;;;;;;;18.56;61.37;102027.53;5029605;28;20120;-55
2023/09/26 07:05:07;;;;;;;4.25;2.97;;;;;;;18.55;61.74;102025.81;5030629;28;20480;-56
2023/09/26 07:07:34;;;;;;;4.55;2.83;;;;;;;18.56;61.37;102019.44;5032323;28;20087;-56
2023/09/26 07:09:59;;;;;;;5.25;2.67;;;;;;;18.56;61.44;102024.81;5034655;28;20042;-55
2023/09/26 07:12:26;;;;;;;3.78;2.63;;;;;;;18.55;61.05;102025.81;5034519;28;20128;-55
2023/09/26 07:14:52;;;;;;;4.80;2.78;;;;;;;18.55;60.65;102026.66;5032363;28;20034;-55
2023/09/26 07:17:17;;;;;;;3.33;2.15;;;;;;;18.55;60.76;102021.28;5032942;28;20029;-55
2023/09/26 07:19:43;;;;;;;3.10;2.63;;;;;;;18.55;60.78;102026.66;5034564;28;20518;-55
2023/09/26 07:22:08;;;;;;;5.70;2.47;;;;;;;18.57;61.13;102023.88;5034198;28;20025;-56
2023/09/26 07:24:34;;;;;;;7.32;2.88;;;;;;;18.57;61.11;102015.78;5034277;28;20021;-55
2023/09/26 07:26:59;;;;;;;3.22;2.90;;;;;;;18.57;60.96;102018.47;5035943;28;20159;-55
2023/09/26 07:29:25;;;;;;;7.20;3.00;;;;;;;18.56;61.25;102014.91;5035057;28;20072;-55
2023/09/26 07:31:51;;;;;;;4.97;3.13;;;;;;;18.58;61.20;102024.72;5035064;28;20041;-55
2023/09/26 07:34:17;;;;;;;5.38;2.88;;;;;;;18.58;61.50;102028.25;5035016;28;20522;-55
2023/09/26 07:36:43;;;;;;;8.50;3.38;;;;;;;18.60;61.89;102025.44;5035797;28;20026;-56
2023/09/26 07:39:08;;;;;;;5.03;3.10;;;;;;;18.61;61.80;102025.34;5036806;28;20036;-55
2023/09/26 07:41:34;;;;;;;5.05;3.45;;;;;;;18.62;61.87;102024.38;5039862;28;20025;-55
2023/09/26 07:43:59;;;;;;;5.90;3.15;;;;;;;18.63;62.04;102022.50;5036458;28;20033;-55
2023/09/26 07:46:24;;;;;;;10.00;3.42;;;;;;;18.63;62.16;102026.06;5034735;28;20033;-55
2023/09/26 07:48:50;;;;;;;5.13;3.15;;;;;;;18.64;62.21;102025.09;5034873;28;20124;-55
2023/09/26 07:51:19;;;;;;;16.20;5.45;;;;;;;18.63;62.33;102017.97;5035810;28;20048;-55
2023/09/26 07:53:44;;;;;;;9.52;5.18;;;;;;;18.65;62.66;102021.41;5036840;28;20108;-55
2023/09/26 07:56:10;;;;;;;14.85;5.68;;;;;;;18.66;62.89;102020.44;5034244;28;20188;-55
2023/09/26 07:58:36;;;;;;;15.02;6.00;;;;;;;18.67;62.91;102019.44;5033840;28;20064;-55
2023/09/26 08:01:06;;;;;;;14.43;6.00;;;;;;;18.69;63.24;102016.63;5035330;28;20034;-55
2023/09/26 08:03:32;;;;;;;12.35;6.35;;;;;;;18.70;63.34;102013.81;5035478;28;20036;-55
2023/09/26 08:06:01;;;;;;;13.63;6.10;;;;;;;18.69;63.16;102019.31;5035093;28;20030;-55
2023/09/26 08:08:28;;;;;;;17.05;6.10;;;;;;;18.69;63.54;102017.47;5034482;28;20025;-56
2023/09/26 08:10:54;;;;;;;14.20;5.55;;;;;;;18.69;63.81;102016.63;5034534;28;20801;-56
2023/09/26 08:13:19;;;;;;;8.50;5.07;;;;;;;18.69;63.58;102012.06;5034516;28;20040;-55
2023/09/26 08:15:46;;;;;;;8.15;4.50;;;;;;;18.71;62.97;102010.13;5034136;28;20142;-55
2023/09/26 08:18:11;;;;;;;9.60;4.63;;;;;;;18.72;63.28;102001.06;5033376;28;20025;-55
2023/09/26 08:20:37;;;;;;;15.35;5.20;;;;;;;18.71;62.91;101999.31;5033330;28;20184;-56
2023/09/26 08:23:02;;;;;;;11.63;5.15;;;;;;;18.71;62.79;101996.63;5034070;28;20025;-55
2023/09/26 08:25:28;;;;;;;11.30;4.85;;;;;;;18.72;63.02;102001.06;5031820;28;20130;-55
2023/09/26 08:27:54;;;;;;;9.07;5.28;;;;;;;18.72;63.08;102001.06;5032146;28;20029;-55
2023/09/26 08:30:19;;;;;;;9.00;4.85;;;;;;;18.72;62.96;102009.16;5031180;28;20368;-56
2023/09/26 08:32:45;;;;;;;6.85;4.53;;;;;;;18.73;63.28;102005.47;5031186;28;20475;-56
2023/09/26 08:35:10;;;;;;;8.27;4.35;;;;;;;18.73;62.81;101994.69;5031897;28;20106;-55
2023/09/26 08:37:37;;;;;;;9.10;4.63;;;;;;;18.73;62.89;102002.78;5031141;28;20036;-55
2023/09/26 08:40:05;;;;;;;8.77;4.65;;;;;;;18.74;62.87;102003.63;5032011;28;20048;-55
2023/09/26 08:42:31;;;;;;;9.23;4.30;;;;;;;18.75;62.89;101999.94;5030068;28;20053;-55
2023/09/26 08:44:57;;;;;;;9.00;4.55;;;;;;;18.75;63.36;102006.22;5033872;28;20041;-55
2023/09/26 08:47:27;;;;;;;15.27;5.13;;;;;;;18.79;63.17;102003.25;5033139;28;20048;-55
2023/09/26 08:49:54;;;;;;;9.88;4.03;;;;;;;18.79;63.11;102005.94;5031260;28;20103;-55
2023/09/26 08:52:23;;;;;;;11.15;4.40;;;;;;;18.79;62.96;101995.16;5033012;28;20424;-55
2023/09/26 08:54:48;;;;;;;10.75;3.92;;;;;;;18.79;62.95;101998.75;5032763;28;20458;-55
2023/09/26 08:57:15;;;;;;;8.07;3.92;;;;;;;18.79;63.22;101989.75;5032505;28;20025;-55
2023/09/26 08:59:45;;;;;;;10.27;3.50;;;;;;;18.80;63.03;101996.88;5032377;28;20029;-55
2023/09/26 09:02:11;;;;;;;8.73;4.18;;;;;;;18.81;62.89;101987.81;5033242;28;20728;-55
2023/09/26 09:04:42;;;;;;;7.63;3.78;;;;;;;18.81;62.94;101991.41;5034241;28;20371;-56
2023/09/26 09:07:07;;;;;;;11.82;3.78;;;;;;;18.82;63.06;102000.34;5033783;28;20379;-55
2023/09/26 09:09:33;;;;;;;8.52;3.72;;;;;;;18.82;63.02;101994.97;5034986;28;20033;-55
2023/09/26 09:11:59;;;;;;;8.70;3.75;;;;;;;18.82;62.76;101989.56;5031943;28;20391;-56
2023/09/26 09:14:32;;;;;;;6.35;3.40;;;;;;;18.82;62.83;101989.56;5032043;28;20041;-55
2023/09/26 09:16:58;;;;;;;7.38;3.80;;;;;;;18.81;62.96;101994.09;5031304;28;20076;-56
2023/09/26 09:19:44;;;;;;;4.78;3.35;;;;;;;18.83;62.88;101993.97;5032194;28;20467;-56
2023/09/26 09:22:22;;;;;;;9.20;3.60;;;;;;;18.81;62.70;101987.81;5030702;28;20432;-56
2023/09/26 09:24:53;;;;;;;8.65;3.78;;;;;;;18.80;62.42;101991.50;5022046;28;20128;-56
2023/09/26 09:27:32;;;;;;;11.77;3.33;;;;;;;18.79;62.17;101996.03;5032504;28;20375;-56
2023/09/26 09:30:09;;;;;;;8.65;3.33;;;;;;;18.80;62.18;101996.88;5028239;28;20025;-56
2023/09/26 09:32:35;;;;;;;6.97;2.95;;;;;;;18.79;62.45;102000.56;5030514;28;20048;-56
2023/09/26 09:35:04;;;;;;;5.10;3.03;;;;;;;18.77;62.34;101992.56;5032610;28;20057;-56
2023/09/26 09:37:30;;;;;;;8.95;3.30;;;;;;;18.78;61.95;101988.06;5030616;28;20033;-56
2023/09/26 09:39:55;;;;;;;8.10;3.60;;;;;;;18.78;62.32;101988.06;5033185;28;20658;-56
2023/09/26 09:42:22;;;;;;;6.60;3.33;;;;;;;18.78;62.34;101988.06;5034526;28;20029;-56
2023/09/26 09:44:47;;;;;;;6.28;3.83;;;;;;;18.78;62.08;101982.66;5033815;28;20558;-56
2023/09/26 09:47:19;;;;;;;6.35;3.15;;;;;;;18.78;62.14;101982.66;5034952;28;20121;-56
2023/09/26 09:49:46;;;;;;;4.72;2.90;;;;;;;18.79;62.05;101978.97;5034515;28;20407;-56
2023/09/26 09:52:12;;;;;;;4.60;3.10;;;;;;;18.76;61.89;101962.03;5034650;28;20333;-56
2023/09/26 09:54:43;;;;;;;8.27;3.30;;;;;;;18.78;62.12;101953.84;5034213;28;20119;-56
2023/09/26 09:57:12;;;;;;;6.60;3.05;;;;;;;18.78;62.04;101958.38;5034810;28;20033;-56
2023/09/26 09:59:39;;;;;;;5.38;3.25;;;;;;;18.78;61.79;101966.47;5034445;28;20087;-56
2023/09/26 10:02:05;;;;;;;4.93;3.20;;;;;;;18.79;61.67;101965.47;5034939;28;20474;-56
2023/09/26 10:04:35;;;;;;;6.07;2.75;;;;;;;18.79;61.61;101963.66;5034440;28;20348;-56
2023/09/26 10:07:00;;;;;;;3.13;2.63;;;;;;;18.79;61.61;101960.09;5034061;28;20030;-56
2023/09/26 10:09:27;;;;;;;4.82;2.90;;;;;;;18.80;61.44;101959.13;5033845;28;20045;-56
2023/09/26 10:11:54;;;;;;;8.73;2.92;;;;;;;18.79;61.73;101960.97;5033726;28;20060;-56
2023/09/26 10:14:21;;;;;;;4.90;2.80;;;;;;;18.80;61.46;101967.22;5033834;28;20044;-56
2023/09/26 10:16:47;;;;;;;6.70;2.92;;;;;;;18.81;61.45;101967.13;5033964;28;20116;-56
2023/09/26 10:19:13;;;;;;;3.55;2.75;;;;;;;18.81;61.50;101964.44;5033764;28;20044;-56
2023/09/26 10:21:40;;;;;;;6.15;2.92;;;;;;;18.82;61.57;101971.53;5033796;28;20037;-56
2023/09/26 10:24:21;;;;;;;5.63;2.67;;;;;;;18.83;61.58;101967.84;5030612;28;20498;-56
2023/09/26 10:26:48;;;;;;;4.40;3.00;;;;;;;18.84;61.61;101968.69;5032272;28;20025;-56
2023/09/26 10:29:19;;;;;;;4.47;2.45;;;;;;;18.83;61.21;101973.25;5034407;28;20295;-56
2023/09/26 10:31:54;;;;;;;4.07;2.60;;;;;;;18.84;61.25;101966.00;5034307;28;20095;-56
2023/09/26 10:34:36;;;;;;;3.80;2.60;;;;;;;18.85;61.51;101963.19;5034585;28;20037;-56
2023/09/26 10:37:06;;;;;;;4.50;2.70;;;;;;;18.83;61.17;101959.75;5031535;28;20033;-56
2023/09/26 10:39:36;;;;;;;6.13;2.60;;;;;;;18.83;61.25;101959.75;5033935;28;20116;-56
2023/09/26 10:42:13;;;;;;;6.18;3.10;;;;;;;18.85;61.18;101959.59;5033152;28;20041;-56
2023/09/26 10:44:45;;;;;;;3.95;2.55;;;;;;;18.83;61.29;101948.97;5038472;28;20037;-56
2023/09/26 10:47:15;;;;;;;5.65;2.67;;;;;;;18.84;61.33;101950.66;5039555;28;20040;-56
2023/09/26 10:49:41;;;;;;;4.82;2.70;;;;;;;18.85;61.23;101935.31;5034425;28;20117;-56
2023/09/26 10:52:08;;;;;;;4.53;2.80;;;;;;;18.84;61.37;101941.72;5038845;28;20117;-56
2023/09/26 10:54:35;;;;;;;6.47;2.85;;;;;;;18.84;60.98;101953.38;5038316;28;20035;-56
2023/09/26 10:57:01;;;;;;;5.13;2.33;;;;;;;18.84;61.23;101960.59;5040009;28;20032;-56
2023/09/26 10:59:31;;;;;;;4.00;2.78;;;;;;;18.85;61.27;101956.91;5037101;28;20452;-56
2023/09/26 11:01:58;;;;;;;4.07;2.88;;;;;;;18.85;60.98;101946.13;5037235;28;20098;-56
2023/09/26 11:04:28;;;;;;;2.55;2.30;;;;;;;18.85;60.85;101943.41;5036905;28;20379;-56
2023/09/26 11:07:02;;;;;;;5.10;2.50;;;;;;;18.86;61.17;101942.44;5037061;28;20029;-56
2023/09/26 11:09:29;;;;;;;5.50;2.88;;;;;;;18.85;61.14;101948.81;5032781;28;20479;-56
2023/09/26 11:11:56;;;;;;;3.85;2.78;;;;;;;18.86;61.15;101958.63;5037711;28;20483;-56
2023/09/26 11:14:24;;;;;;;5.10;2.20;;;;;;;18.85;60.95;101957.78;5037956;28;20479;-56
2023/09/26 11:16:51;;;;;;;3.42;2.67;;;;;;;18.87;61.08;101963.06;5037603;28;20044;-56
2023/09/26 11:19:17;;;;;;;3.67;2.30;;;;;;;18.86;60.82;101962.19;5037746;28;20042;-56
2023/09/26 11:21:42;;;;;;;4.82;2.63;;;;;;;18.87;61.00;101954.97;5037274;28;20045;-56
2023/09/26 11:24:40;;;;;;;4.28;2.88;;;;;;;18.90;60.88;101954.69;5037793;28;20040;-56